createdAt,value
2022-09-30T00:01:40.186Z,4.60
2022-09-30T00:04:18.482Z,4.10
2022-09-30T00:06:45.866Z,3.38
2022-09-30T00:09:13.266Z,6.32
2022-09-30T00:11:42.063Z,4.65
2022-09-30T00:14:13.238Z,5.00
2022-09-30T00:16:39.978Z,4.05
2022-09-30T00:19:11.675Z,4.93
2022-09-30T00:21:38.829Z,5.93
2022-09-30T00:24:06.001Z,6.15
2022-09-30T00:26:38.729Z,6.00
2022-09-30T00:29:05.436Z,6.47
2022-09-30T00:31:34.747Z,3.08
2022-09-30T00:34:09.496Z,5.32
2022-09-30T00:36:48.180Z,5.57
2022-09-30T00:39:21.114Z,4.88
2022-09-30T00:41:52.021Z,5.45
2022-09-30T00:44:54.485Z,6.00
2022-09-30T00:47:38.773Z,4.93
2022-09-30T00:50:17.294Z,4.72
2022-09-30T00:52:48.714Z,4.10
2022-09-30T00:55:27.704Z,4.85
2022-09-30T00:57:55.571Z,4.80
2022-09-30T01:00:22.113Z,4.90
2022-09-30T01:02:56.790Z,6.68
2022-09-30T01:05:26.533Z,8.13
2022-09-30T01:07:58.023Z,6.68
2022-09-30T01:10:26.348Z,5.93
2022-09-30T01:12:53.135Z,5.00
2022-09-30T01:15:24.339Z,7.72
2022-09-30T01:18:06.417Z,6.50
2022-09-30T01:21:03.384Z,6.90
2022-09-30T01:24:02.440Z,6.82
2022-09-30T01:26:42.679Z,6.60
2022-09-30T01:29:34.748Z,4.22
2022-09-30T01:32:09.764Z,6.05
2022-09-30T01:35:02.356Z,5.13
2022-09-30T01:38:14.078Z,5.80
2022-09-30T01:41:06.393Z,5.85
2022-09-30T01:43:52.704Z,4.65
2022-09-30T01:49:05.104Z,4.40
2022-09-30T01:51:39.600Z,4.00
2022-09-30T01:54:10.702Z,7.82
2022-09-30T01:56:47.428Z,4.40
2022-09-30T01:59:31.651Z,4.60
2022-09-30T02:02:17.262Z,5.72
2022-09-30T02:04:50.880Z,5.93
2022-09-30T02:07:27.192Z,4.95
2022-09-30T02:10:03.930Z,5.82
2022-09-30T02:12:40.486Z,4.70
2022-09-30T02:15:12.794Z,6.72
2022-09-30T02:17:54.702Z,5.85
2022-09-30T02:20:32.405Z,5.45
2022-09-30T02:23:05.758Z,4.45
2022-09-30T02:25:47.323Z,5.68
2022-09-30T02:28:23.461Z,7.72
2022-09-30T02:30:53.953Z,4.88
2022-09-30T02:33:27.686Z,6.32
2022-09-30T02:36:02.300Z,6.07
2022-09-30T02:38:39.271Z,4.95
2022-09-30T02:41:23.833Z,5.75
2022-09-30T02:43:54.125Z,5.60
2022-09-30T02:46:32.722Z,4.80
2022-09-30T02:49:23.412Z,6.30
2022-09-30T02:52:20.557Z,6.80
2022-09-30T02:55:13.217Z,5.18
2022-09-30T02:58:00.043Z,6.20
2022-09-30T03:00:38.405Z,4.45
2022-09-30T03:03:18.537Z,6.05
2022-09-30T03:05:45.602Z,5.05
2022-09-30T03:08:12.202Z,4.30
2022-09-30T03:10:39.647Z,5.40
2022-09-30T03:13:51.161Z,4.18
2022-09-30T03:16:49.917Z,4.50
2022-09-30T03:19:49.627Z,7.70
2022-09-30T03:22:33.159Z,4.30
2022-09-30T03:25:02.442Z,4.72
2022-09-30T03:27:35.559Z,6.70
2022-09-30T03:30:07.829Z,5.95
2022-09-30T03:33:00.588Z,5.13
2022-09-30T03:35:35.047Z,5.53
2022-09-30T03:38:14.064Z,4.60
2022-09-30T03:40:57.229Z,5.78
2022-09-30T03:43:47.526Z,5.95
2022-09-30T03:46:42.339Z,9.73
2022-09-30T03:49:15.793Z,5.68
2022-09-30T03:51:42.629Z,7.43
2022-09-30T03:54:13.922Z,5.88
2022-09-30T03:56:43.971Z,7.93
2022-09-30T03:59:33.795Z,6.82
2022-09-30T04:02:00.745Z,10.15
2022-09-30T04:04:29.274Z,12.38
2022-09-30T04:06:57.610Z,10.77
2022-09-30T04:09:24.436Z,9.57
2022-09-30T04:11:51.079Z,8.75
2022-09-30T04:14:19.343Z,8.05
2022-09-30T04:16:50.672Z,11.18
2022-09-30T04:19:22.089Z,12.02
2022-09-30T04:21:51.385Z,8.85
2022-09-30T04:24:17.945Z,8.95
2022-09-30T04:26:48.922Z,11.85
2022-09-30T04:29:15.790Z,9.30
2022-09-30T04:31:42.492Z,9.82
2022-09-30T04:34:10.948Z,9.00
2022-09-30T04:36:39.733Z,8.95
2022-09-30T04:39:06.636Z,11.23
2022-09-30T04:41:36.417Z,9.13
2022-09-30T04:44:07.765Z,9.63
2022-09-30T04:46:36.910Z,11.38
2022-09-30T04:49:08.819Z,8.70
2022-09-30T04:51:36.857Z,9.88
2022-09-30T04:54:03.543Z,11.85
2022-09-30T04:56:36.612Z,10.45
2022-09-30T04:59:03.073Z,8.63
2022-09-30T05:01:29.596Z,10.27
2022-09-30T05:03:58.282Z,11.90
2022-09-30T05:06:27.633Z,11.27
2022-09-30T05:08:54.317Z,9.82
2022-09-30T05:11:26.256Z,10.95
2022-09-30T05:13:52.771Z,11.13
2022-09-30T05:16:19.472Z,9.20
2022-09-30T05:18:48.730Z,9.95
2022-09-30T05:21:20.652Z,9.73
2022-09-30T05:23:48.038Z,8.85
2022-09-30T05:26:15.547Z,12.30
2022-09-30T05:28:42.500Z,10.20
2022-09-30T05:31:09.969Z,7.20
2022-09-30T05:33:36.924Z,7.50
2022-09-30T05:36:07.225Z,8.50
2022-09-30T05:38:34.753Z,7.32
2022-09-30T05:41:16.107Z,6.70
2022-09-30T05:43:47.836Z,6.72
2022-09-30T05:46:20.829Z,6.63
2022-09-30T05:48:47.405Z,6.90
2022-09-30T05:51:13.962Z,9.82
2022-09-30T05:53:47.904Z,6.05
2022-09-30T05:56:14.766Z,6.53
2022-09-30T05:58:42.172Z,5.15
2022-09-30T06:01:15.402Z,4.95
2022-09-30T06:03:43.468Z,4.45
2022-09-30T06:06:10.557Z,4.05
2022-09-30T06:08:37.584Z,4.57
2022-09-30T06:11:12.029Z,3.95
2022-09-30T06:13:40.034Z,3.78
2022-09-30T06:16:08.106Z,4.60
2022-09-30T06:18:34.943Z,4.15
2022-09-30T06:21:03.428Z,4.35
2022-09-30T06:23:31.623Z,3.47
2022-09-30T06:25:58.265Z,3.55
2022-09-30T06:28:33.606Z,3.53
2022-09-30T06:31:00.066Z,3.40
2022-09-30T06:33:26.559Z,3.78
2022-09-30T06:35:53.330Z,3.53
2022-09-30T06:38:21.266Z,3.65
2022-09-30T06:40:51.817Z,4.55
2022-09-30T06:43:18.630Z,3.60
2022-09-30T06:45:46.894Z,3.85
2022-09-30T06:48:13.724Z,3.28
2022-09-30T06:50:47.637Z,3.30
2022-09-30T06:53:27.990Z,4.78
2022-09-30T06:56:13.291Z,4.25
2022-09-30T06:58:40.451Z,3.65
2022-09-30T07:01:07.144Z,3.92
2022-09-30T07:03:37.365Z,4.65
2022-09-30T07:06:05.610Z,3.60
2022-09-30T07:08:34.065Z,3.50
2022-09-30T07:11:06.463Z,4.57
2022-09-30T07:13:33.332Z,8.52
2022-09-30T07:16:00.045Z,4.57
2022-09-30T07:18:33.401Z,4.20
2022-09-30T07:20:59.867Z,4.53
2022-09-30T07:23:27.053Z,4.30
2022-09-30T07:25:59.106Z,5.40
2022-09-30T07:28:29.810Z,4.53
2022-09-30T07:31:13.794Z,6.95
2022-09-30T07:33:45.297Z,4.60
2022-09-30T07:36:14.119Z,4.70
2022-09-30T07:38:42.266Z,4.70
2022-09-30T07:41:12.894Z,5.78
2022-09-30T07:43:40.732Z,4.93
2022-09-30T07:46:17.693Z,5.30
2022-09-30T07:48:45.567Z,4.00
2022-09-30T07:51:22.139Z,4.25
2022-09-30T07:53:55.683Z,3.83
2022-09-30T07:56:24.279Z,3.03
2022-09-30T07:58:59.757Z,4.28
2022-09-30T08:01:29.947Z,6.78
2022-09-30T08:03:58.784Z,4.57
2022-09-30T08:06:27.228Z,4.88
2022-09-30T08:08:57.621Z,4.97
2022-09-30T08:11:26.395Z,8.45
2022-09-30T08:13:54.450Z,8.05
2022-09-30T08:16:24.270Z,10.10
2022-09-30T08:18:57.812Z,8.30
2022-09-30T08:21:24.580Z,9.68
2022-09-30T08:23:51.412Z,10.20
2022-09-30T08:26:18.043Z,8.55
2022-09-30T08:28:48.326Z,7.72
2022-09-30T08:31:19.248Z,7.10
2022-09-30T08:33:46.337Z,7.55
2022-09-30T08:36:15.968Z,5.70
2022-09-30T08:38:45.451Z,7.25
2022-09-30T08:42:13.719Z,6.45
2022-09-30T08:44:51.304Z,6.93
2022-09-30T08:47:20.566Z,6.53
2022-09-30T08:50:34.735Z,4.95
2022-09-30T08:53:05.744Z,4.75
2022-09-30T08:55:43.874Z,5.30
2022-09-30T08:58:48.717Z,4.60
2022-09-30T09:01:33.657Z,7.10
2022-09-30T09:04:02.270Z,4.80
2022-09-30T09:06:37.497Z,5.32
2022-09-30T09:09:15.600Z,4.15
2022-09-30T09:12:00.334Z,4.10
2022-09-30T09:14:35.933Z,4.43
2022-09-30T09:17:16.839Z,5.68
2022-09-30T09:20:00.052Z,5.90
2022-09-30T09:22:30.160Z,4.00
2022-09-30T09:24:57.905Z,6.00
2022-09-30T09:27:38.300Z,4.30
2022-09-30T09:30:26.269Z,4.65
2022-09-30T09:32:57.314Z,5.93
2022-09-30T09:35:26.509Z,4.35
2022-09-30T09:38:27.286Z,6.25
2022-09-30T09:41:06.321Z,5.10
2022-09-30T09:44:01.258Z,4.35
2022-09-30T09:46:44.721Z,6.25
2022-09-30T09:49:25.369Z,4.20
2022-09-30T09:52:13.519Z,4.25
2022-09-30T09:54:52.629Z,6.63
2022-09-30T09:57:27.717Z,4.20
2022-09-30T10:00:47.027Z,5.43
2022-09-30T10:03:21.794Z,4.07
2022-09-30T10:06:07.339Z,5.65
2022-09-30T10:08:37.039Z,6.32
2022-09-30T10:11:07.001Z,6.70
2022-09-30T10:13:49.835Z,4.35
2022-09-30T10:16:43.377Z,6.63
2022-09-30T10:19:22.827Z,4.47
2022-09-30T10:21:54.004Z,4.68
2022-09-30T10:24:31.123Z,8.30
2022-09-30T10:27:04.336Z,5.40
2022-09-30T10:29:35.796Z,5.70
2022-09-30T10:32:06.212Z,4.30
2022-09-30T10:34:44.464Z,4.95
2022-09-30T10:37:22.008Z,5.00
2022-09-30T10:40:03.178Z,7.93
2022-09-30T10:42:32.911Z,4.18
2022-09-30T10:45:11.809Z,6.53
2022-09-30T10:47:46.356Z,7.07
2022-09-30T10:50:20.754Z,6.85
2022-09-30T10:52:53.734Z,8.70
2022-09-30T10:55:20.159Z,4.82
2022-09-30T10:57:49.749Z,3.90
2022-09-30T11:00:25.314Z,7.88
2022-09-30T11:03:03.952Z,3.60
2022-09-30T11:05:41.122Z,3.55
2022-09-30T11:08:22.404Z,4.53
2022-09-30T11:11:10.401Z,4.65
2022-09-30T11:13:50.535Z,3.97
2022-09-30T11:16:36.703Z,3.72
2022-09-30T11:21:53.719Z,3.75
2022-09-30T11:24:34.979Z,4.03
2022-09-30T11:27:17.812Z,7.55
2022-09-30T11:29:51.762Z,3.78
2022-09-30T11:32:36.678Z,5.68
2022-09-30T11:38:28.899Z,4.78
2022-09-30T11:41:07.392Z,4.43
2022-09-30T11:43:54.552Z,5.03
2022-09-30T11:46:39.634Z,4.28
2022-09-30T11:49:46.413Z,3.63
2022-09-30T11:52:48.136Z,5.18
2022-09-30T11:55:34.853Z,5.72
2022-09-30T11:58:28.606Z,4.10
2022-09-30T12:01:01.341Z,3.53
2022-09-30T12:06:11.553Z,4.70
2022-09-30T12:08:47.661Z,4.75
2022-09-30T12:11:22.434Z,4.35
2022-09-30T12:13:57.472Z,6.32
2022-09-30T12:16:29.607Z,3.93
2022-09-30T12:19:15.417Z,4.03
2022-09-30T12:22:07.351Z,7.10
2022-09-30T12:24:44.507Z,7.72
2022-09-30T12:27:35.483Z,4.53
2022-09-30T12:30:18.077Z,4.25
2022-09-30T12:33:13.188Z,5.32
2022-09-30T12:35:56.461Z,4.43
2022-09-30T12:38:29.001Z,4.80
2022-09-30T12:41:30.349Z,3.63
2022-09-30T12:44:27.375Z,4.65
2022-09-30T12:47:35.085Z,4.72
2022-09-30T12:50:07.653Z,4.97
2022-09-30T12:52:36.243Z,4.00
2022-09-30T12:55:09.439Z,3.95
2022-09-30T12:57:40.830Z,6.22
2022-09-30T13:00:16.410Z,4.53
2022-09-30T13:02:53.377Z,3.92
2022-09-30T13:05:32.306Z,3.55
2022-09-30T13:08:04.941Z,4.95
2022-09-30T13:10:31.577Z,3.08
2022-09-30T13:13:19.626Z,4.30
2022-09-30T13:15:46.853Z,4.35
2022-09-30T13:18:19.723Z,3.80
2022-09-30T13:21:05.000Z,6.78
2022-09-30T13:23:41.556Z,4.72
2022-09-30T13:26:26.543Z,5.22
2022-09-30T13:29:19.795Z,4.47
2022-09-30T13:31:49.555Z,4.05
2022-09-30T13:34:30.950Z,2.88
2022-09-30T13:37:01.061Z,2.97
2022-09-30T13:39:52.331Z,3.45
2022-09-30T13:42:31.595Z,4.43
2022-09-30T13:45:04.600Z,3.05
2022-09-30T13:47:49.659Z,2.70
2022-09-30T13:50:33.075Z,2.50
2022-09-30T13:55:55.758Z,2.45
2022-09-30T13:58:40.273Z,2.53
2022-09-30T14:01:26.674Z,2.17
2022-09-30T14:04:16.151Z,3.08
2022-09-30T14:06:51.888Z,2.50
2022-09-30T14:12:13.621Z,2.40
2022-09-30T14:15:01.299Z,1.98
2022-09-30T14:17:49.540Z,2.28
2022-09-30T14:20:39.042Z,2.10
2022-09-30T14:23:16.846Z,3.08
2022-09-30T14:26:08.111Z,2.50
2022-09-30T14:28:48.411Z,2.25
2022-09-30T14:31:15.684Z,2.08
2022-09-30T14:33:47.488Z,4.63
2022-09-30T14:36:20.752Z,2.40
2022-09-30T14:38:52.382Z,2.30
2022-09-30T14:41:22.630Z,2.38
2022-09-30T14:43:56.648Z,2.10
2022-09-30T14:46:34.015Z,3.10
2022-09-30T14:49:10.243Z,2.17
2022-09-30T14:54:21.412Z,2.20
2022-09-30T14:56:52.760Z,2.05
2022-09-30T14:59:27.075Z,2.08
2022-09-30T15:02:27.110Z,2.45
2022-09-30T15:05:00.390Z,2.50
2022-09-30T15:07:28.324Z,2.13
2022-09-30T15:10:01.809Z,2.03
2022-09-30T15:12:28.876Z,2.60
2022-09-30T15:15:01.490Z,1.88
2022-09-30T15:17:30.726Z,1.73
2022-09-30T15:19:58.775Z,2.03
2022-09-30T15:22:27.860Z,1.50
2022-09-30T15:24:55.469Z,1.58
2022-09-30T15:27:31.725Z,1.70
2022-09-30T15:30:01.855Z,2.25
2022-09-30T15:32:36.672Z,1.50
2022-09-30T15:35:15.418Z,1.50
2022-09-30T15:37:54.593Z,2.80
2022-09-30T15:40:43.090Z,2.90
2022-09-30T15:43:12.013Z,2.08
2022-09-30T15:45:43.409Z,1.80
2022-09-30T15:48:27.052Z,2.30
2022-09-30T15:50:55.809Z,3.00
2022-09-30T15:53:25.605Z,2.65
2022-09-30T15:55:59.857Z,3.35
2022-09-30T15:58:26.688Z,1.73
2022-09-30T16:01:09.364Z,2.08
2022-09-30T16:03:37.945Z,1.58
2022-09-30T16:06:07.383Z,1.75
2022-09-30T16:08:44.458Z,2.47
2022-09-30T16:11:20.531Z,2.08
2022-09-30T16:13:48.247Z,1.33
2022-09-30T16:16:20.698Z,1.60
2022-09-30T16:18:48.658Z,1.65
2022-09-30T16:21:49.454Z,2.25
2022-09-30T16:24:31.919Z,2.50
2022-09-30T16:27:14.365Z,2.28
2022-09-30T16:29:41.092Z,6.63
2022-09-30T16:32:10.029Z,2.63
2022-09-30T16:34:46.270Z,1.85
2022-09-30T16:37:19.376Z,2.33
2022-09-30T16:39:50.311Z,2.63
2022-09-30T16:42:18.258Z,1.95
2022-09-30T16:44:45.276Z,2.20
2022-09-30T16:47:16.984Z,2.97
2022-09-30T16:49:45.801Z,2.20
2022-09-30T16:52:13.326Z,2.70
2022-09-30T16:54:40.913Z,3.08
2022-09-30T16:57:09.613Z,1.77
2022-09-30T16:59:36.254Z,1.83
2022-09-30T17:02:04.063Z,4.68
2022-09-30T17:04:33.482Z,1.75
2022-09-30T17:07:00.016Z,3.25
2022-09-30T17:09:26.538Z,1.67
2022-09-30T17:11:53.409Z,2.20
2022-09-30T17:14:19.907Z,2.35
2022-09-30T17:16:48.661Z,2.97
2022-09-30T17:19:15.421Z,6.00
2022-09-30T17:21:41.919Z,2.45
2022-09-30T17:24:08.535Z,3.80
2022-09-30T17:26:40.626Z,3.05
2022-09-30T17:29:31.270Z,2.72
2022-09-30T17:31:58.927Z,2.53
2022-09-30T17:34:28.126Z,2.38
2022-09-30T17:36:56.234Z,2.80
2022-09-30T17:39:23.005Z,2.50
2022-09-30T17:42:09.159Z,2.38
2022-09-30T17:44:36.288Z,1.92
2022-09-30T17:47:02.799Z,4.38
2022-09-30T17:49:36.925Z,3.80
2022-09-30T17:52:06.371Z,2.20
2022-09-30T17:54:34.437Z,2.67
2022-09-30T17:57:02.961Z,6.50
2022-09-30T17:59:32.345Z,2.63
2022-09-30T18:01:58.890Z,2.17
2022-09-30T18:04:26.167Z,1.92
2022-09-30T18:06:56.962Z,3.17
2022-09-30T18:09:27.496Z,2.60
2022-09-30T18:11:57.910Z,4.32
2022-09-30T18:14:24.395Z,2.47
2022-09-30T18:16:50.981Z,2.95
2022-09-30T18:19:19.376Z,2.80
2022-09-30T18:21:47.590Z,3.53
2022-09-30T18:24:14.247Z,2.80
2022-09-30T18:26:48.909Z,3.53
2022-09-30T18:29:15.363Z,2.80
2022-09-30T18:31:43.260Z,5.40
2022-09-30T18:34:17.535Z,4.13
2022-09-30T18:36:44.506Z,3.63
2022-09-30T18:39:10.970Z,3.28
2022-09-30T18:41:44.498Z,3.20
2022-09-30T18:44:11.911Z,3.53
2022-09-30T18:46:38.617Z,3.15
2022-09-30T18:49:05.691Z,3.22
2022-09-30T18:51:36.028Z,3.00
2022-09-30T18:54:04.058Z,3.53
2022-09-30T18:56:32.499Z,3.38
2022-09-30T18:59:04.637Z,2.80
2022-09-30T19:01:33.157Z,4.25
2022-09-30T19:04:07.236Z,3.53
2022-09-30T19:06:35.677Z,4.22
2022-09-30T19:09:02.303Z,6.00
2022-09-30T19:11:32.572Z,4.05
2022-09-30T19:14:01.523Z,3.05
2022-09-30T19:16:29.528Z,3.15
2022-09-30T19:19:05.675Z,3.90
2022-09-30T19:21:35.549Z,3.78
2022-09-30T19:24:07.366Z,5.57
2022-09-30T19:26:38.358Z,4.35
2022-09-30T19:29:05.943Z,2.70
2022-09-30T19:31:33.984Z,3.63
2022-09-30T19:34:03.760Z,3.42
2022-09-30T19:36:46.671Z,3.05
2022-09-30T19:39:19.434Z,3.85
2022-09-30T19:41:47.334Z,3.22
2022-09-30T19:44:18.774Z,3.72
2022-09-30T19:46:47.117Z,5.18
2022-09-30T19:49:13.792Z,5.78
2022-09-30T19:51:40.259Z,3.35
2022-09-30T19:54:07.739Z,3.33
2022-09-30T19:56:36.228Z,3.30
2022-09-30T19:59:03.530Z,3.78
2022-09-30T20:01:35.189Z,3.67
2022-09-30T20:04:05.194Z,3.05
2022-09-30T20:06:33.205Z,4.93
2022-09-30T20:09:02.381Z,3.97
2022-09-30T20:11:33.579Z,3.05
2022-09-30T20:14:20.208Z,4.15
2022-09-30T20:16:50.065Z,3.28
2022-09-30T20:19:18.939Z,3.08
2022-09-30T20:21:52.771Z,3.50
2022-09-30T20:24:19.631Z,2.90
2022-09-30T20:26:47.196Z,3.38
2022-09-30T20:29:15.460Z,3.17
2022-09-30T20:31:43.393Z,3.53
2022-09-30T20:34:13.295Z,4.47
2022-09-30T20:36:42.311Z,3.67
2022-09-30T20:39:09.647Z,4.40
2022-09-30T20:41:38.478Z,4.63
2022-09-30T20:44:07.079Z,2.50
2022-09-30T20:46:34.548Z,2.85
2022-09-30T20:49:02.172Z,2.70
2022-09-30T20:51:36.067Z,2.22
2022-09-30T20:54:02.837Z,4.65
2022-09-30T20:56:44.121Z,5.60
2022-09-30T20:59:28.344Z,3.22
2022-09-30T21:01:56.748Z,3.70
2022-09-30T21:04:23.415Z,2.88
2022-09-30T21:06:50.252Z,2.92
2022-09-30T21:09:17.083Z,3.63
2022-09-30T21:11:44.091Z,4.60
2022-09-30T21:14:11.100Z,2.80
2022-09-30T21:16:38.090Z,2.58
2022-09-30T21:19:04.694Z,2.50
2022-09-30T21:21:36.166Z,3.58
2022-09-30T21:24:02.781Z,4.47
2022-09-30T21:26:30.153Z,2.25
2022-09-30T21:29:03.157Z,7.00
2022-09-30T21:31:30.405Z,2.53
2022-09-30T21:33:58.812Z,3.90
2022-09-30T21:36:28.686Z,3.35
2022-09-30T21:39:01.543Z,2.90
2022-09-30T21:41:35.721Z,3.92
2022-09-30T21:44:04.414Z,3.13
2022-09-30T21:46:35.656Z,2.80
2022-09-30T21:49:07.827Z,2.45
2022-09-30T21:51:35.581Z,2.65
2022-09-30T21:54:06.020Z,5.63
2022-09-30T21:56:39.510Z,3.00
2022-09-30T21:59:06.399Z,3.22
2022-09-30T22:01:33.512Z,4.18
2022-09-30T22:04:02.125Z,3.72
2022-09-30T22:06:29.552Z,5.63
2022-09-30T22:08:57.123Z,2.90
2022-09-30T22:11:28.649Z,4.22
2022-09-30T22:13:57.586Z,3.67
2022-09-30T22:16:29.857Z,3.42
2022-09-30T22:19:03.543Z,3.38
2022-09-30T22:21:33.204Z,2.70
2022-09-30T22:24:04.063Z,3.15
2022-09-30T22:26:33.652Z,3.00
2022-09-30T22:29:06.206Z,2.80
2022-09-30T22:31:33.732Z,4.80
2022-09-30T22:34:21.572Z,3.92
2022-09-30T22:37:07.194Z,3.75
2022-09-30T22:39:35.069Z,3.42
2022-09-30T22:42:02.226Z,3.70
2022-09-30T22:44:32.660Z,6.40
2022-09-30T22:47:02.306Z,5.03
2022-09-30T22:49:33.080Z,4.82
2022-09-30T22:51:59.783Z,5.00
2022-09-30T22:54:27.652Z,5.97
2022-09-30T22:56:54.991Z,4.97
2022-09-30T22:59:23.009Z,6.35
2022-09-30T23:01:58.293Z,5.55
2022-09-30T23:04:25.944Z,5.07
2022-09-30T23:06:55.850Z,4.72
2022-09-30T23:09:22.963Z,4.78
2022-09-30T23:11:53.362Z,5.35
2022-09-30T23:14:22.296Z,9.90
2022-09-30T23:16:51.357Z,6.65
2022-09-30T23:19:18.837Z,6.28
2022-09-30T23:21:45.380Z,6.40
2022-09-30T23:24:14.115Z,7.55
2022-09-30T23:26:40.628Z,8.10
2022-09-30T23:29:12.389Z,7.05
2022-09-30T23:31:45.499Z,8.32
2022-09-30T23:34:13.166Z,5.68
2022-09-30T23:36:40.094Z,6.35
2022-09-30T23:39:21.567Z,5.07
2022-09-30T23:41:49.333Z,4.07
2022-09-30T23:44:19.720Z,4.50
2022-09-30T23:47:05.802Z,4.00
2022-09-30T23:49:35.810Z,3.90
2022-09-30T23:52:12.984Z,5.95
2022-09-30T23:54:41.579Z,3.85
2022-09-30T23:57:08.447Z,3.70
2022-09-30T23:59:35.282Z,4.45
